createdAt,value
2023-05-09T00:00:20.978Z,38.19
2023-05-09T00:00:51.075Z,38.19
2023-05-09T00:01:21.157Z,38.17
2023-05-09T00:01:51.291Z,38.15
2023-05-09T00:02:21.299Z,38.18
2023-05-09T00:02:51.357Z,38.28
2023-05-09T00:03:21.411Z,38.19
2023-05-09T00:03:51.500Z,38.18
2023-05-09T00:04:21.467Z,38.22
2023-05-09T00:04:51.510Z,38.22
2023-05-09T00:05:21.498Z,38.22
2023-05-09T00:05:51.594Z,38.19
2023-05-09T00:06:21.677Z,38.19
2023-05-09T00:06:51.748Z,38.15
2023-05-09T00:07:21.850Z,38.19
2023-05-09T00:07:51.933Z,38.18
2023-05-09T00:08:22.016Z,38.19
2023-05-09T00:08:52.099Z,38.21
2023-05-09T00:09:22.197Z,38.18
2023-05-09T00:09:52.293Z,38.19
2023-05-09T00:10:22.517Z,38.15
2023-05-09T00:10:52.473Z,38.15
2023-05-09T00:11:22.545Z,38.19
2023-05-09T00:11:52.579Z,38.22
2023-05-09T00:12:22.657Z,38.19
2023-05-09T00:12:52.688Z,38.19
2023-05-09T00:13:22.877Z,38.15
2023-05-09T00:13:52.790Z,38.14
2023-05-09T00:14:22.841Z,38.20
2023-05-09T00:14:52.886Z,38.16
2023-05-09T00:15:22.925Z,38.19
2023-05-09T00:15:52.974Z,38.16
2023-05-09T00:16:23.058Z,38.20
2023-05-09T00:16:53.220Z,38.22
2023-05-09T00:17:23.218Z,38.16
2023-05-09T00:17:53.301Z,38.16
2023-05-09T00:18:23.355Z,38.17
2023-05-09T00:18:53.415Z,38.13
2023-05-09T00:19:23.456Z,38.19
2023-05-09T00:19:53.502Z,38.15
2023-05-09T00:20:23.547Z,38.15
2023-05-09T00:20:53.604Z,38.18
2023-05-09T00:21:23.654Z,38.16
2023-05-09T00:21:53.729Z,38.18
2023-05-09T00:22:23.849Z,38.16
2023-05-09T00:22:53.910Z,38.17
2023-05-09T00:23:24.019Z,38.12
2023-05-09T00:23:54.106Z,38.15
2023-05-09T00:24:24.191Z,38.15
2023-05-09T00:24:54.285Z,38.16
2023-05-09T00:25:24.373Z,38.17
2023-05-09T00:25:54.642Z,38.14
2023-05-09T00:26:24.585Z,38.16
2023-05-09T00:26:54.680Z,38.16
2023-05-09T00:27:24.779Z,38.19
2023-05-09T00:27:54.848Z,38.13
2023-05-09T00:28:24.928Z,38.13
2023-05-09T00:28:55.022Z,38.09
2023-05-09T00:29:25.125Z,38.16
2023-05-09T00:29:55.196Z,38.15
2023-05-09T00:30:25.277Z,38.16
2023-05-09T00:30:55.375Z,38.16
2023-05-09T00:31:25.480Z,38.13
2023-05-09T00:31:55.549Z,38.13
2023-05-09T00:32:25.683Z,38.16
2023-05-09T00:32:55.809Z,38.19
2023-05-09T00:33:25.708Z,38.16
2023-05-09T00:33:55.794Z,38.17
2023-05-09T00:34:25.876Z,38.13
2023-05-09T00:34:55.949Z,38.12
2023-05-09T00:35:26.041Z,38.16
2023-05-09T00:35:56.128Z,38.17
2023-05-09T00:36:26.214Z,38.17
2023-05-09T00:36:56.291Z,38.19
2023-05-09T00:37:26.393Z,38.14
2023-05-09T00:37:56.480Z,38.20
2023-05-09T00:38:26.587Z,38.12
2023-05-09T00:38:56.647Z,38.21
2023-05-09T00:39:26.731Z,38.17
2023-05-09T00:39:56.809Z,38.17
2023-05-09T00:40:26.902Z,38.16
2023-05-09T00:40:57.109Z,38.14
2023-05-09T00:41:27.056Z,38.13
2023-05-09T00:41:57.144Z,38.13
2023-05-09T00:42:27.458Z,38.13
2023-05-09T00:42:57.318Z,38.13
2023-05-09T00:43:57.453Z,38.16
2023-05-09T00:44:27.538Z,38.16
2023-05-09T00:44:57.628Z,38.14
2023-05-09T00:45:27.707Z,38.12
2023-05-09T00:45:57.835Z,38.11
2023-05-09T00:46:27.929Z,38.12
2023-05-09T00:46:58.025Z,38.13
2023-05-09T00:47:28.110Z,38.16
2023-05-09T00:47:58.130Z,38.12
2023-05-09T00:48:28.129Z,38.16
2023-05-09T00:48:58.212Z,38.13
2023-05-09T00:49:28.288Z,38.13
2023-05-09T00:49:58.428Z,38.13
2023-05-09T00:50:28.384Z,38.17
2023-05-09T00:50:58.467Z,38.11
2023-05-09T00:51:28.565Z,38.11
2023-05-09T00:51:58.665Z,38.16
2023-05-09T00:52:28.742Z,38.16
2023-05-09T00:52:58.860Z,38.13
2023-05-09T00:53:28.930Z,38.10
2023-05-09T00:53:59.019Z,38.12
2023-05-09T00:54:29.092Z,38.14
2023-05-09T00:54:59.192Z,38.13
2023-05-09T00:55:29.271Z,38.08
2023-05-09T00:55:59.494Z,38.15
2023-05-09T00:56:29.438Z,38.14
2023-05-09T00:56:59.523Z,38.13
2023-05-09T00:57:29.606Z,38.11
2023-05-09T00:57:59.708Z,38.10
2023-05-09T00:58:29.782Z,38.10
2023-05-09T00:58:59.866Z,38.11
2023-05-09T00:59:29.956Z,38.14
2023-05-09T01:00:00.046Z,38.11
2023-05-09T01:00:30.122Z,38.14
2023-05-09T01:01:00.263Z,38.16
2023-05-09T01:01:30.252Z,38.15
2023-05-09T01:02:00.257Z,38.11
2023-05-09T01:02:30.427Z,38.10
2023-05-09T01:03:00.500Z,38.11
2023-05-09T01:03:30.598Z,38.11
2023-05-09T01:04:00.593Z,38.15
2023-05-09T01:04:30.677Z,38.11
2023-05-09T01:05:00.769Z,38.08
2023-05-09T01:05:30.908Z,38.10
2023-05-09T01:06:00.879Z,38.11
2023-05-09T01:06:30.989Z,38.10
2023-05-09T01:07:01.054Z,38.07
2023-05-09T01:07:31.149Z,38.08
2023-05-09T01:08:01.231Z,38.13
2023-05-09T01:08:31.328Z,38.08
2023-05-09T01:09:01.405Z,38.11
2023-05-09T01:09:31.484Z,38.09
2023-05-09T01:10:01.584Z,38.08
2023-05-09T01:10:31.678Z,38.10
2023-05-09T01:11:01.889Z,38.13
2023-05-09T01:11:31.801Z,38.08
2023-05-09T01:12:31.848Z,38.11
2023-05-09T01:13:01.996Z,38.13
2023-05-09T01:13:31.963Z,38.06
2023-05-09T01:14:01.991Z,38.13
2023-05-09T01:14:32.036Z,38.08
2023-05-09T01:15:02.111Z,38.07
2023-05-09T01:15:32.153Z,38.10
2023-05-09T01:16:02.214Z,38.11
2023-05-09T01:16:32.252Z,38.11
2023-05-09T01:17:02.290Z,38.07
2023-05-09T01:17:32.381Z,38.07
2023-05-09T01:18:02.443Z,38.10
2023-05-09T01:18:32.485Z,38.07
2023-05-09T01:19:02.549Z,38.11
2023-05-09T01:19:32.600Z,38.10
2023-05-09T01:20:02.644Z,38.11
2023-05-09T01:20:32.688Z,38.11
2023-05-09T01:21:02.723Z,38.11
2023-05-09T01:21:32.807Z,38.07
2023-05-09T01:22:02.926Z,38.07
2023-05-09T01:22:32.918Z,38.08
2023-05-09T01:23:03.001Z,38.10
2023-05-09T01:23:33.091Z,38.06
2023-05-09T01:24:03.184Z,38.14
2023-05-09T01:24:33.310Z,38.11
2023-05-09T01:25:03.281Z,38.07
2023-05-09T01:25:33.365Z,38.08
2023-05-09T01:26:03.565Z,38.05
2023-05-09T01:26:33.530Z,38.09
2023-05-09T01:27:33.560Z,38.10
2023-05-09T01:28:03.640Z,38.10
2023-05-09T01:28:33.729Z,38.08
2023-05-09T01:29:03.835Z,38.05
2023-05-09T01:29:33.918Z,38.06
2023-05-09T01:30:04.015Z,38.10
2023-05-09T01:30:34.094Z,38.01
2023-05-09T01:31:04.203Z,38.10
2023-05-09T01:31:34.297Z,38.05
2023-05-09T01:32:04.377Z,38.07
2023-05-09T01:32:34.503Z,38.07
2023-05-09T01:33:04.556Z,38.08
2023-05-09T01:33:34.541Z,38.08
2023-05-09T01:34:04.617Z,38.10
2023-05-09T01:34:34.720Z,38.05
2023-05-09T01:35:04.822Z,38.08
2023-05-09T01:35:34.924Z,38.12
2023-05-09T01:36:05.016Z,38.07
2023-05-09T01:36:35.092Z,38.10
2023-05-09T01:37:05.187Z,38.10
2023-05-09T01:37:35.275Z,38.04
2023-05-09T01:38:05.360Z,38.04
2023-05-09T01:38:35.439Z,38.01
2023-05-09T01:39:05.586Z,38.05
2023-05-09T01:39:35.644Z,38.08
2023-05-09T01:40:05.712Z,38.07
2023-05-09T01:40:35.806Z,38.07
2023-05-09T01:41:06.037Z,38.05
2023-05-09T01:41:35.979Z,38.01
2023-05-09T01:42:06.083Z,38.01
2023-05-09T01:42:36.165Z,38.01
2023-05-09T01:43:06.295Z,38.05
2023-05-09T01:43:36.376Z,38.05
2023-05-09T01:44:06.388Z,38.07
2023-05-09T01:44:36.354Z,38.02
2023-05-09T01:45:06.468Z,38.05
2023-05-09T01:45:36.450Z,38.03
2023-05-09T01:46:06.594Z,38.07
2023-05-09T01:46:36.621Z,38.07
2023-05-09T01:47:06.693Z,38.05
2023-05-09T01:47:36.829Z,38.06
2023-05-09T01:48:06.930Z,38.09
2023-05-09T01:48:36.905Z,38.08
2023-05-09T01:49:07.049Z,38.09
2023-05-09T01:49:37.043Z,38.06
2023-05-09T01:50:07.129Z,38.02
2023-05-09T01:50:37.215Z,38.04
2023-05-09T01:51:07.290Z,38.04
2023-05-09T01:51:37.292Z,38.02
2023-05-09T01:52:07.396Z,37.98
2023-05-09T01:52:37.495Z,38.02
2023-05-09T01:53:07.575Z,38.04
2023-05-09T01:53:37.654Z,38.05
2023-05-09T01:54:07.754Z,38.02
2023-05-09T01:54:37.829Z,38.02
2023-05-09T01:55:07.909Z,38.01
2023-05-09T01:55:37.994Z,38.01
2023-05-09T01:56:08.202Z,38.02
2023-05-09T01:56:38.154Z,38.01
2023-05-09T01:57:08.242Z,38.07
2023-05-09T01:57:38.311Z,38.02
2023-05-09T01:58:08.398Z,38.01
2023-05-09T01:58:38.490Z,38.02
2023-05-09T01:59:08.577Z,38.03
2023-05-09T01:59:38.661Z,38.04
2023-05-09T02:00:08.739Z,37.98
2023-05-09T02:00:38.876Z,38.03
2023-05-09T02:01:09.013Z,38.02
2023-05-09T02:01:38.962Z,37.98
2023-05-09T02:02:09.056Z,38.02
2023-05-09T02:02:39.242Z,38.03
2023-05-09T02:03:09.212Z,38.04
2023-05-09T02:03:39.181Z,38.03
2023-05-09T02:04:09.246Z,38.01
2023-05-09T02:04:39.332Z,38.05
2023-05-09T02:05:09.376Z,38.01
2023-05-09T02:05:39.473Z,38.02
2023-05-09T02:06:09.555Z,38.02
2023-05-09T02:06:39.655Z,38.03
2023-05-09T02:07:09.735Z,38.02
2023-05-09T02:07:39.821Z,38.01
2023-05-09T02:08:09.901Z,38.01
2023-05-09T02:08:39.980Z,37.98
2023-05-09T02:09:10.089Z,37.98
2023-05-09T02:09:40.180Z,38.02
2023-05-09T02:10:10.282Z,37.98
2023-05-09T02:10:40.369Z,37.99
2023-05-09T02:11:10.454Z,37.98
2023-05-09T02:11:40.665Z,37.96
2023-05-09T02:12:10.639Z,38.02
2023-05-09T02:12:40.780Z,38.01
2023-05-09T02:13:10.807Z,37.98
2023-05-09T02:13:40.765Z,37.99
2023-05-09T02:14:10.855Z,37.95
2023-05-09T02:14:40.956Z,37.97
2023-05-09T02:15:11.054Z,37.98
2023-05-09T02:15:41.131Z,37.94
2023-05-09T02:16:11.263Z,37.94
2023-05-09T02:16:41.257Z,37.94
2023-05-09T02:17:11.338Z,37.95
2023-05-09T02:17:41.456Z,38.04
2023-05-09T02:18:11.514Z,37.97
2023-05-09T02:18:41.637Z,37.99
2023-05-09T02:19:11.708Z,37.97
2023-05-09T02:19:41.808Z,38.01
2023-05-09T02:20:11.917Z,38.02
2023-05-09T02:20:41.890Z,37.99
2023-05-09T02:21:12.074Z,37.95
2023-05-09T02:21:42.011Z,37.99
2023-05-09T02:22:12.003Z,38.01
2023-05-09T02:22:42.032Z,37.95
2023-05-09T02:23:12.055Z,38.02
2023-05-09T02:23:42.045Z,37.97
2023-05-09T02:24:12.043Z,38.00
2023-05-09T02:24:42.057Z,38.05
2023-05-09T02:25:12.279Z,38.01
2023-05-09T02:25:42.070Z,37.99
2023-05-09T02:26:12.095Z,38.02
2023-05-09T02:26:42.244Z,37.98
2023-05-09T02:27:12.103Z,37.96
2023-05-09T02:28:12.209Z,38.02
2023-05-09T02:28:42.210Z,37.99
2023-05-09T02:29:12.236Z,37.93
2023-05-09T02:29:42.237Z,38.01
2023-05-09T02:30:12.257Z,37.97
2023-05-09T02:30:42.249Z,37.96
2023-05-09T02:31:12.250Z,38.02
2023-05-09T02:31:42.286Z,37.97
2023-05-09T02:32:12.407Z,37.99
2023-05-09T02:32:42.401Z,38.03
2023-05-09T02:33:12.431Z,37.95
2023-05-09T02:33:42.431Z,38.02
2023-05-09T02:34:12.442Z,38.01
2023-05-09T02:34:42.468Z,37.99
2023-05-09T02:35:12.620Z,37.96
2023-05-09T02:35:42.527Z,37.95
2023-05-09T02:36:12.525Z,37.97
2023-05-09T02:36:42.544Z,37.95
2023-05-09T02:37:12.545Z,37.92
2023-05-09T02:37:42.560Z,37.92
2023-05-09T02:38:12.585Z,37.97
2023-05-09T02:38:42.603Z,37.99
2023-05-09T02:39:12.620Z,37.97
2023-05-09T02:39:42.626Z,37.99
2023-05-09T02:40:12.639Z,37.95
2023-05-09T02:40:42.628Z,37.92
2023-05-09T02:41:12.632Z,37.92
2023-05-09T02:42:12.846Z,37.89
2023-05-09T02:42:42.842Z,37.99
2023-05-09T02:43:42.865Z,37.97
2023-05-09T02:44:12.856Z,37.90
2023-05-09T02:44:42.860Z,37.93
2023-05-09T02:45:13.160Z,37.96
2023-05-09T02:45:42.923Z,37.96
2023-05-09T02:46:12.962Z,37.96
2023-05-09T02:46:42.983Z,37.95
2023-05-09T02:47:12.997Z,37.94
2023-05-09T02:47:43.047Z,37.92
2023-05-09T02:48:13.171Z,37.96
2023-05-09T02:48:43.095Z,37.89
2023-05-09T02:49:22.801Z,37.97
2023-05-09T02:49:43.203Z,37.92
2023-05-09T02:50:13.208Z,37.97
2023-05-09T02:50:43.214Z,37.97
2023-05-09T02:51:13.328Z,37.97
2023-05-09T02:51:43.342Z,38.00
2023-05-09T02:52:13.353Z,37.95
2023-05-09T02:52:43.371Z,37.93
2023-05-09T02:53:13.392Z,37.95
2023-05-09T02:53:43.393Z,37.99
2023-05-09T02:54:13.399Z,37.97
2023-05-09T02:54:43.408Z,37.92
2023-05-09T02:55:13.665Z,37.92
2023-05-09T02:55:43.442Z,37.96
2023-05-09T02:56:13.458Z,37.97
2023-05-09T02:56:43.457Z,37.92
2023-05-09T02:57:13.487Z,37.90
2023-05-09T02:57:43.615Z,37.95
2023-05-09T02:58:15.006Z,37.96
2023-05-09T02:59:13.656Z,37.96
2023-05-09T02:59:43.664Z,37.93
2023-05-09T03:00:13.672Z,37.92
2023-05-09T03:00:43.698Z,37.94
2023-05-09T03:01:13.735Z,37.89
2023-05-09T03:01:43.768Z,37.94
2023-05-09T03:02:13.747Z,37.95
2023-05-09T03:02:43.914Z,37.92
2023-05-09T03:03:13.905Z,37.90
2023-05-09T03:03:44.169Z,37.89
2023-05-09T03:04:14.032Z,37.93
2023-05-09T03:04:44.149Z,37.90
2023-05-09T03:05:14.297Z,37.94
2023-05-09T03:05:44.176Z,37.90
2023-05-09T03:06:14.190Z,37.89
2023-05-09T03:06:44.194Z,37.90
2023-05-09T03:07:14.242Z,37.90
2023-05-09T03:07:44.251Z,37.87
2023-05-09T03:08:14.277Z,37.92
2023-05-09T03:08:44.270Z,37.95
2023-05-09T03:09:14.275Z,37.89
2023-05-09T03:09:44.287Z,37.93
2023-05-09T03:10:14.307Z,37.92
2023-05-09T03:10:44.331Z,37.93
2023-05-09T03:11:14.330Z,37.89
2023-05-09T03:11:44.429Z,37.87
2023-05-09T03:12:14.514Z,37.94
2023-05-09T03:12:44.622Z,37.90
2023-05-09T03:13:14.874Z,37.88
2023-05-09T03:13:44.752Z,37.88
2023-05-09T03:14:14.854Z,37.89
2023-05-09T03:14:44.922Z,37.87
2023-05-09T03:15:15.173Z,37.87
2023-05-09T03:15:45.092Z,37.89
2023-05-09T03:16:15.194Z,37.87
2023-05-09T03:16:45.162Z,37.90
2023-05-09T03:17:15.245Z,37.89
2023-05-09T03:17:45.405Z,37.90
2023-05-09T03:18:15.367Z,37.93
2023-05-09T03:18:45.481Z,37.89
2023-05-09T03:19:15.571Z,37.90
2023-05-09T03:19:45.685Z,37.90
2023-05-09T03:20:15.869Z,37.92
2023-05-09T03:20:45.832Z,37.89
2023-05-09T03:21:15.968Z,37.89
2023-05-09T03:21:45.978Z,37.86
2023-05-09T03:22:15.995Z,37.89
2023-05-09T03:22:45.997Z,37.86
2023-05-09T03:23:16.007Z,37.90
2023-05-09T03:23:46.014Z,37.86
2023-05-09T03:24:16.050Z,37.84
2023-05-09T03:24:46.033Z,37.86
2023-05-09T03:25:16.391Z,37.87
2023-05-09T03:25:46.216Z,37.89
2023-05-09T03:26:16.108Z,37.86
2023-05-09T03:27:16.211Z,37.83
2023-05-09T03:27:46.216Z,37.92
2023-05-09T03:28:16.232Z,37.86
2023-05-09T03:28:46.361Z,37.86
2023-05-09T03:29:16.349Z,37.89
2023-05-09T03:30:16.440Z,37.89
2023-05-09T03:30:46.446Z,37.84
2023-05-09T03:31:16.502Z,37.83
2023-05-09T03:31:46.605Z,37.86
2023-05-09T03:32:16.599Z,37.86
2023-05-09T03:32:46.641Z,37.87
2023-05-09T03:33:16.641Z,37.92
2023-05-09T03:33:46.656Z,37.89
2023-05-09T03:34:16.672Z,37.87
2023-05-09T03:34:46.677Z,37.87
2023-05-09T03:35:16.866Z,37.87
2023-05-09T03:35:46.757Z,37.86
2023-05-09T03:36:16.780Z,37.83
2023-05-09T03:36:46.785Z,37.87
2023-05-09T03:37:16.785Z,37.83
2023-05-09T03:37:46.799Z,37.87
2023-05-09T03:38:16.807Z,37.86
2023-05-09T03:38:46.805Z,37.87
2023-05-09T03:39:16.842Z,37.87
2023-05-09T03:39:46.821Z,37.88
2023-05-09T03:40:16.838Z,37.87
2023-05-09T03:40:46.833Z,37.87
2023-05-09T03:41:16.873Z,37.84
2023-05-09T03:41:46.864Z,37.83
2023-05-09T03:42:16.890Z,37.85
2023-05-09T03:42:46.886Z,37.87
2023-05-09T03:43:16.885Z,37.87
2023-05-09T03:43:46.903Z,37.87
2023-05-09T03:44:17.040Z,37.88
2023-05-09T03:44:47.014Z,37.90
2023-05-09T03:45:17.121Z,37.84
2023-05-09T03:45:47.041Z,37.88
2023-05-09T03:46:17.097Z,37.89
2023-05-09T03:46:47.184Z,37.81
2023-05-09T03:47:17.219Z,37.84
2023-05-09T03:47:47.287Z,37.80
2023-05-09T03:48:17.286Z,37.76
2023-05-09T03:48:47.303Z,37.80
2023-05-09T03:49:17.352Z,37.73
2023-05-09T03:49:47.367Z,37.76
2023-05-09T03:50:17.364Z,37.75
2023-05-09T03:50:47.395Z,37.75
2023-05-09T03:51:17.413Z,37.73
2023-05-09T03:51:47.432Z,37.74
2023-05-09T03:52:17.454Z,37.67
2023-05-09T03:52:47.454Z,37.71
2023-05-09T03:53:17.461Z,37.71
2023-05-09T03:53:47.476Z,37.67
2023-05-09T03:54:17.486Z,37.67
2023-05-09T03:54:47.500Z,37.70
2023-05-09T03:55:17.509Z,37.66
2023-05-09T03:55:47.523Z,37.68
2023-05-09T03:56:17.529Z,37.64
2023-05-09T03:56:47.537Z,37.64
2023-05-09T03:57:17.622Z,37.64
2023-05-09T03:57:47.622Z,37.63
2023-05-09T03:58:17.632Z,37.62
2023-05-09T03:58:47.666Z,37.56
2023-05-09T03:59:17.662Z,37.63
2023-05-09T03:59:47.788Z,37.63
2023-05-09T04:00:17.763Z,37.58
2023-05-09T04:00:47.887Z,37.59
2023-05-09T04:01:17.885Z,37.59
2023-05-09T04:01:47.939Z,37.56
2023-05-09T04:02:18.001Z,37.55
2023-05-09T04:02:48.040Z,37.54
2023-05-09T04:03:18.134Z,37.50
2023-05-09T04:03:48.185Z,37.53
2023-05-09T04:04:18.219Z,37.54
2023-05-09T04:04:48.221Z,37.48
2023-05-09T04:05:18.264Z,37.51
2023-05-09T04:05:48.264Z,37.53
2023-05-09T04:06:18.267Z,37.54
2023-05-09T04:06:48.281Z,37.49
2023-05-09T04:07:18.347Z,37.52
2023-05-09T04:07:48.364Z,37.49
2023-05-09T04:08:18.370Z,37.49
2023-05-09T04:08:48.369Z,37.46
2023-05-09T04:09:18.384Z,37.48
2023-05-09T04:09:48.383Z,37.55
2023-05-09T04:10:18.396Z,37.56
2023-05-09T04:10:48.400Z,37.57
2023-05-09T04:11:18.517Z,37.64
2023-05-09T04:11:48.610Z,37.74
2023-05-09T04:12:18.713Z,37.84
2023-05-09T04:12:48.855Z,37.79
2023-05-09T04:13:18.827Z,37.70
2023-05-09T04:13:48.901Z,37.76
2023-05-09T04:14:18.986Z,37.75
2023-05-09T04:14:49.261Z,37.82
2023-05-09T04:15:19.108Z,37.83
2023-05-09T04:16:19.296Z,37.85
2023-05-09T04:16:49.260Z,37.81
2023-05-09T04:17:19.262Z,37.78
2023-05-09T04:17:49.461Z,37.77
2023-05-09T04:18:19.340Z,37.73
2023-05-09T04:18:49.431Z,37.79
2023-05-09T04:19:19.552Z,37.80
2023-05-09T04:19:49.603Z,37.77
2023-05-09T04:20:19.679Z,37.89
2023-05-09T04:20:49.779Z,37.79
2023-05-09T04:21:19.779Z,37.97
2023-05-09T04:21:49.783Z,37.76
2023-05-09T04:22:19.782Z,37.81
2023-05-09T04:22:49.785Z,37.79
2023-05-09T04:23:19.795Z,37.81
2023-05-09T04:23:49.813Z,37.76
2023-05-09T04:24:19.820Z,37.70
2023-05-09T04:24:49.826Z,37.69
2023-05-09T04:25:19.830Z,37.91
2023-05-09T04:25:49.844Z,37.97
2023-05-09T04:26:19.870Z,37.87
2023-05-09T04:26:49.882Z,38.00
2023-05-09T04:27:19.886Z,37.93
2023-05-09T04:27:49.905Z,37.84
2023-05-09T04:28:19.917Z,37.77
2023-05-09T04:28:49.923Z,37.87
2023-05-09T04:29:19.930Z,37.77
2023-05-09T04:29:49.940Z,37.83
2023-05-09T04:30:20.076Z,37.83
2023-05-09T04:30:50.019Z,37.86
2023-05-09T04:31:50.220Z,37.78
2023-05-09T04:32:20.107Z,37.69
2023-05-09T04:32:50.144Z,37.79
2023-05-09T04:33:20.136Z,37.73
2023-05-09T04:33:50.142Z,37.84
2023-05-09T04:34:20.143Z,37.80
2023-05-09T04:34:50.146Z,37.76
2023-05-09T04:35:20.873Z,37.78
2023-05-09T04:35:50.254Z,38.34
2023-05-09T04:36:20.368Z,38.13
2023-05-09T04:36:50.375Z,38.03
2023-05-09T04:37:20.383Z,38.51
2023-05-09T04:37:50.400Z,38.84
2023-05-09T04:38:20.408Z,38.91
2023-05-09T04:38:50.407Z,38.56
2023-05-09T04:39:20.408Z,38.50
2023-05-09T04:39:50.423Z,38.57
2023-05-09T04:40:20.469Z,38.76
2023-05-09T04:40:50.478Z,38.75
2023-05-09T04:41:20.490Z,38.59
2023-05-09T04:41:50.498Z,38.68
2023-05-09T04:42:20.501Z,38.71
2023-05-09T04:42:50.526Z,39.28
2023-05-09T04:43:20.540Z,39.11
2023-05-09T04:43:50.541Z,38.98
2023-05-09T04:44:20.558Z,39.28
2023-05-09T04:44:50.588Z,39.40
2023-05-09T04:45:20.646Z,39.31
2023-05-09T04:45:50.791Z,39.22
2023-05-09T04:46:20.861Z,39.34
2023-05-09T04:46:50.763Z,39.28
2023-05-09T04:47:20.764Z,39.14
2023-05-09T04:47:50.790Z,39.08
2023-05-09T04:48:20.792Z,39.19
2023-05-09T04:48:50.797Z,39.27
2023-05-09T04:49:20.839Z,39.35
2023-05-09T04:49:50.841Z,39.15
2023-05-09T04:50:20.861Z,39.15
2023-05-09T04:50:50.887Z,39.21
2023-05-09T04:51:20.879Z,39.11
2023-05-09T04:51:50.889Z,39.25
2023-05-09T04:52:20.892Z,39.42
2023-05-09T04:52:50.902Z,39.35
2023-05-09T04:53:20.912Z,39.53
2023-05-09T04:53:50.925Z,39.44
2023-05-09T04:54:20.928Z,39.37
2023-05-09T04:54:50.935Z,39.28
2023-05-09T04:55:20.953Z,39.54
2023-05-09T04:55:50.958Z,39.36
2023-05-09T04:56:20.981Z,39.26
2023-05-09T04:56:51.001Z,39.62
2023-05-09T04:57:21.000Z,39.35
2023-05-09T04:57:51.023Z,39.36
2023-05-09T04:58:21.035Z,39.29
2023-05-09T04:58:51.041Z,39.03
2023-05-09T04:59:21.062Z,39.39
2023-05-09T04:59:51.109Z,39.22
2023-05-09T05:00:21.121Z,39.07
2023-05-09T05:00:51.120Z,39.28
2023-05-09T05:01:21.168Z,39.01
2023-05-09T05:01:51.246Z,38.93
2023-05-09T05:02:21.365Z,38.77
2023-05-09T05:02:51.303Z,39.04
2023-05-09T05:03:21.358Z,38.96
2023-05-09T05:03:51.395Z,39.28
2023-05-09T05:04:21.467Z,39.20
2023-05-09T05:04:52.917Z,39.27
2023-05-09T05:05:25.010Z,39.54
2023-05-09T05:05:51.658Z,40.03
2023-05-09T05:06:21.732Z,39.87
2023-05-09T05:06:51.732Z,40.05
2023-05-09T05:07:21.740Z,39.94
2023-05-09T05:08:21.889Z,41.24
2023-05-09T05:08:51.890Z,40.81
2023-05-09T05:09:21.901Z,41.39
2023-05-09T05:09:51.912Z,41.60
2023-05-09T05:10:21.939Z,42.45
2023-05-09T05:10:51.940Z,41.19
2023-05-09T05:11:21.942Z,42.17
2023-05-09T05:11:59.957Z,42.47
2023-05-09T05:12:22.118Z,42.57
2023-05-09T05:12:52.258Z,42.15
2023-05-09T05:13:22.340Z,42.39
2023-05-09T05:13:52.255Z,41.80
2023-05-09T05:14:22.360Z,41.49
2023-05-09T05:14:52.458Z,41.61
2023-05-09T05:15:22.531Z,41.47
2023-05-09T05:15:52.687Z,41.99
2023-05-09T05:16:22.727Z,41.88
2023-05-09T05:16:52.828Z,41.12
2023-05-09T05:17:22.804Z,41.41
2023-05-09T05:17:52.920Z,42.24
2023-05-09T05:18:22.887Z,41.72
2023-05-09T05:18:52.978Z,41.64
2023-05-09T05:19:23.063Z,41.87
2023-05-09T05:19:53.149Z,41.99
2023-05-09T05:20:23.229Z,41.84
2023-05-09T05:20:53.322Z,42.30
2023-05-09T05:21:23.314Z,41.52
2023-05-09T05:21:53.321Z,42.13
2023-05-09T05:22:23.339Z,41.81
2023-05-09T05:22:53.358Z,40.86
2023-05-09T05:23:23.360Z,41.43
2023-05-09T05:23:53.387Z,41.72
2023-05-09T05:24:23.392Z,42.18
2023-05-09T05:24:53.418Z,42.03
2023-05-09T05:25:23.414Z,41.48
2023-05-09T05:25:53.425Z,41.16
2023-05-09T05:26:23.507Z,41.67
2023-05-09T05:26:53.523Z,41.88
2023-05-09T05:27:23.529Z,41.50
2023-05-09T05:27:53.534Z,41.11
2023-05-09T05:28:23.540Z,42.03
2023-05-09T05:28:53.548Z,41.20
2023-05-09T05:29:23.543Z,42.09
2023-05-09T05:29:53.567Z,41.72
2023-05-09T05:30:23.556Z,41.46
2023-05-09T05:30:53.577Z,41.26
2023-05-09T05:31:23.601Z,41.80
2023-05-09T05:31:53.715Z,41.65
2023-05-09T05:32:23.805Z,41.69
2023-05-09T05:32:53.672Z,41.31
2023-05-09T05:33:53.764Z,41.67
2023-05-09T05:34:23.762Z,41.40
2023-05-09T05:34:53.773Z,41.46
2023-05-09T05:35:23.783Z,42.12
2023-05-09T05:35:53.805Z,41.83
2023-05-09T05:36:23.829Z,41.81
2023-05-09T05:36:53.831Z,41.61
2023-05-09T05:37:23.835Z,41.88
2023-05-09T05:37:53.843Z,41.35
2023-05-09T05:38:23.856Z,41.75
2023-05-09T05:38:53.865Z,41.93
2023-05-09T05:39:23.877Z,42.00
2023-05-09T05:39:53.876Z,42.03
2023-05-09T05:40:23.908Z,42.45
2023-05-09T05:40:53.915Z,41.84
2023-05-09T05:41:23.922Z,41.62
2023-05-09T05:41:53.928Z,41.19
2023-05-09T05:42:23.944Z,41.87
2023-05-09T05:42:53.946Z,41.72
2023-05-09T05:43:23.956Z,41.07
2023-05-09T05:43:54.603Z,41.03
2023-05-09T05:44:24.068Z,41.22
2023-05-09T05:44:54.091Z,40.93
2023-05-09T05:45:24.109Z,40.95
2023-05-09T05:45:54.138Z,41.38
2023-05-09T05:46:24.156Z,41.12
2023-05-09T05:46:54.170Z,41.12
2023-05-09T05:47:24.173Z,41.65
2023-05-09T05:47:54.502Z,41.34
2023-05-09T05:48:24.338Z,41.82
2023-05-09T05:49:24.412Z,41.79
2023-05-09T05:49:54.432Z,41.68
2023-05-09T05:50:24.434Z,41.69
2023-05-09T05:50:54.473Z,41.31
2023-05-09T05:51:24.460Z,41.43
2023-05-09T05:51:54.469Z,42.18
2023-05-09T05:52:24.479Z,42.32
2023-05-09T05:52:54.488Z,42.36
2023-05-09T05:53:24.511Z,41.83
2023-05-09T05:53:54.516Z,41.89
2023-05-09T05:54:24.543Z,42.22
2023-05-09T05:54:54.553Z,41.87
2023-05-09T05:55:24.569Z,42.09
2023-05-09T05:55:54.561Z,41.91
2023-05-09T05:56:24.577Z,41.93
2023-05-09T05:56:54.585Z,41.74
2023-05-09T05:57:24.585Z,41.72
2023-05-09T05:57:54.617Z,41.81
2023-05-09T05:58:24.635Z,42.18
2023-05-09T05:58:54.643Z,41.82
2023-05-09T05:59:24.670Z,41.64
2023-05-09T05:59:54.671Z,41.63
2023-05-09T06:00:24.680Z,41.63
2023-05-09T06:00:54.682Z,41.61
2023-05-09T06:01:24.707Z,41.58
2023-05-09T06:01:54.723Z,41.44
2023-05-09T06:02:54.963Z,41.74
2023-05-09T06:03:25.059Z,41.63
2023-05-09T06:03:55.049Z,41.67
2023-05-09T06:04:56.155Z,41.26
2023-05-09T06:05:25.084Z,41.34
2023-05-09T06:05:55.094Z,41.09
2023-05-09T06:06:25.119Z,41.64
2023-05-09T06:06:55.140Z,41.31
2023-05-09T06:07:25.163Z,41.59
2023-05-09T06:07:55.176Z,41.35
2023-05-09T06:08:25.201Z,41.26
2023-05-09T06:08:55.214Z,41.54
2023-05-09T06:09:25.218Z,41.37
2023-05-09T06:09:55.246Z,41.63
2023-05-09T06:10:25.258Z,41.15
2023-05-09T06:10:55.272Z,41.32
2023-05-09T06:11:25.373Z,41.31
2023-05-09T06:11:55.370Z,41.38
2023-05-09T06:12:27.344Z,41.28
2023-05-09T06:12:55.553Z,41.55
2023-05-09T06:13:25.614Z,41.34
2023-05-09T06:13:55.551Z,41.33
2023-05-09T06:14:25.636Z,41.37
2023-05-09T06:14:55.738Z,41.25
2023-05-09T06:15:25.811Z,41.17
2023-05-09T06:15:57.748Z,41.31
2023-05-09T06:16:25.992Z,41.36
2023-05-09T06:16:56.150Z,41.15
2023-05-09T06:17:26.144Z,41.09
2023-05-09T06:17:56.212Z,41.40
2023-05-09T06:18:26.226Z,41.14
2023-05-09T06:18:56.473Z,41.28
2023-05-09T06:19:26.317Z,41.03
2023-05-09T06:20:26.469Z,41.24
2023-05-09T06:20:56.548Z,41.31
2023-05-09T06:21:26.680Z,41.33
2023-05-09T06:21:56.669Z,41.07
2023-05-09T06:22:26.671Z,40.62
2023-05-09T06:22:56.727Z,41.17
2023-05-09T06:23:26.722Z,40.98
2023-05-09T06:24:35.649Z,41.17
2023-05-09T06:24:56.846Z,41.22
2023-05-09T06:25:26.851Z,40.98
2023-05-09T06:25:56.869Z,40.88
2023-05-09T06:26:26.896Z,40.95
2023-05-09T06:26:56.945Z,40.81
2023-05-09T06:27:26.976Z,40.97
2023-05-09T06:27:56.983Z,41.04
2023-05-09T06:28:27.007Z,40.94
2023-05-09T06:28:57.008Z,40.80
2023-05-09T06:29:27.029Z,41.02
2023-05-09T06:29:57.029Z,40.93
2023-05-09T06:30:27.339Z,40.82
2023-05-09T06:30:57.153Z,41.01
2023-05-09T06:31:27.202Z,41.02
2023-05-09T06:31:57.252Z,41.15
2023-05-09T06:32:27.297Z,41.04
2023-05-09T06:32:57.395Z,41.08
2023-05-09T06:33:27.412Z,41.22
2023-05-09T06:33:57.418Z,41.10
2023-05-09T06:34:27.557Z,40.93
2023-05-09T06:34:57.432Z,40.91
2023-05-09T06:35:57.520Z,41.18
2023-05-09T06:36:27.549Z,41.19